Time;durP1;ratioP1;P1;durP2;ratioP2;P2;SDS_P1;SDS_P2;PMS_P1;PMS_P2;Temp;Humidity;BMP_temperature;BMP_pressure;BME280_temperature;BME280_humidity;BME280_pressure;Samples;Min_cycle;Max_cycle;Signal;HPM_P1;HPM_P2
2023/03/07 00:01:11;;;;;;;11.07;7.23;;;;;;;;;;5002350;28;23759;-54
2023/03/07 00:03:37;;;;;;;10.30;6.17;;;;;;;;;;5014072;28;20442;-54
2023/03/07 00:06:05;;;;;;;12.03;7.40;;;;;;;;;;5016741;28;20478;-52
2023/03/07 00:08:31;;;;;;;12.33;6.63;;;;;;;;;;5001696;28;20446;-54
2023/03/07 00:10:59;;;;;;;10.80;6.17;;;;;;;;;;5040114;28;20430;-55
2023/03/07 00:13:27;;;;;;;10.57;5.83;;;;;;;;;;4969648;28;20458;-53
2023/03/07 00:15:53;;;;;;;13.80;7.70;;;;;;;;;;5035675;28;21054;-59
2023/03/07 00:18:19;;;;;;;9.23;6.07;;;;;;;;;;5008435;28;20451;-55
2023/03/07 00:20:45;;;;;;;7.97;6.47;;;;;;;;;;5034280;28;20478;-56
2023/03/07 00:23:11;;;;;;;11.37;6.83;;;;;;;;;;5006314;28;20439;-56
2023/03/07 00:25:37;;;;;;;14.20;6.50;;;;;;;;;;5031081;28;20478;-54
2023/03/07 00:28:02;;;;;;;9.57;6.50;;;;;;;;;;5011122;28;21150;-54
2023/03/07 00:30:28;;;;;;;12.17;6.10;;;;;;;;;;5026713;28;21184;-55
2023/03/07 00:32:59;;;;;;;14.90;7.00;;;;;;;;;;5000480;28;23592;-54
2023/03/07 00:35:26;;;;;;;8.37;7.13;;;;;;;;;;5017579;28;20889;-55
2023/03/07 00:37:52;;;;;;;10.93;7.23;;;;;;;;;;5024900;28;20434;-53
2023/03/07 00:40:19;;;;;;;10.93;6.60;;;;;;;;;;5002292;28;20241;-57
2023/03/07 00:42:45;;;;;;;9.83;5.97;;;;;;;;;;5029392;28;20429;-52
2023/03/07 00:45:12;;;;;;;12.37;7.30;;;;;;;;;;4990461;28;20822;-54
2023/03/07 00:47:38;;;;;;;7.60;5.87;;;;;;;;;;5033489;28;20969;-54
2023/03/07 00:50:04;;;;;;;9.43;5.97;;;;;;;;;;4994308;28;20450;-56
2023/03/07 00:52:30;;;;;;;10.13;6.87;;;;;;;;;;5035770;28;20438;-55
2023/03/07 00:54:56;;;;;;;11.63;6.43;;;;;;;;;;4999065;28;20937;-54
2023/03/07 00:57:22;;;;;;;9.40;6.10;;;;;;;;;;5032186;28;20994;-54
2023/03/07 00:59:48;;;;;;;10.93;6.40;;;;;;;;;;5003843;28;20654;-54
2023/03/07 01:02:14;;;;;;;11.10;6.40;;;;;;;;;;5032719;28;20430;-54
2023/03/07 01:04:40;;;;;;;10.53;6.10;;;;;;;;;;4971739;28;20596;-55
2023/03/07 01:07:06;;;;;;;9.00;5.43;;;;;;;;;;5028823;28;20520;-54
2023/03/07 01:09:32;;;;;;;9.13;5.80;;;;;;;;;;5016510;28;20520;-54
2023/03/07 01:11:58;;;;;;;8.50;5.90;;;;;;;;;;5020069;28;20542;-55
2023/03/07 01:14:24;;;;;;;8.67;5.30;;;;;;;;;;5016054;28;22458;-54
2023/03/07 01:16:50;;;;;;;10.13;7.13;;;;;;;;;;5010761;28;20471;-54
2023/03/07 01:19:16;;;;;;;10.67;5.90;;;;;;;;;;5027632;28;20895;-55
2023/03/07 01:21:43;;;;;;;11.07;6.20;;;;;;;;;;5027096;28;20450;-54
2023/03/07 01:24:10;;;;;;;15.20;6.67;;;;;;;;;;5027500;28;21385;-51
2023/03/07 01:26:36;;;;;;;11.00;6.57;;;;;;;;;;4974313;28;20486;-54
2023/03/07 01:29:03;;;;;;;15.03;6.57;;;;;;;;;;5037567;28;20461;-54
2023/03/07 01:31:31;;;;;;;15.03;7.57;;;;;;;;;;5014083;28;20447;-53
2023/03/07 01:33:57;;;;;;;9.23;5.97;;;;;;;;;;5023186;28;20918;-54
2023/03/07 01:36:48;;;;;;;10.57;5.47;;;;;;;;;;5002503;28;20714;-54
2023/03/07 01:39:15;;;;;;;9.57;5.87;;;;;;;;;;5019555;28;20431;-54
2023/03/07 01:41:41;;;;;;;9.90;6.13;;;;;;;;;;4993917;28;20463;-53
2023/03/07 01:44:13;;;;;;;10.40;6.20;;;;;;;;;;5023177;28;20612;-54
2023/03/07 01:46:43;;;;;;;10.90;5.93;;;;;;;;;;4999214;28;21171;-53
2023/03/07 01:49:10;;;;;;;12.57;6.63;;;;;;;;;;5033767;28;20561;-54
2023/03/07 01:51:36;;;;;;;9.90;5.33;;;;;;;;;;5029867;28;20443;-54
2023/03/07 01:54:02;;;;;;;8.87;5.83;;;;;;;;;;5055924;28;20451;-52
2023/03/07 01:56:28;;;;;;;10.10;6.90;;;;;;;;;;5019445;28;20446;-54
2023/03/07 01:58:54;;;;;;;10.17;5.70;;;;;;;;;;5029180;28;20430;-52
2023/03/07 02:01:20;;;;;;;11.47;6.43;;;;;;;;;;5010956;28;20447;-54
2023/03/07 02:03:48;;;;;;;12.63;6.60;;;;;;;;;;5033238;28;20862;-53
2023/03/07 02:06:18;;;;;;;9.13;6.33;;;;;;;;;;5018235;28;20524;-54
2023/03/07 02:08:44;;;;;;;9.07;5.63;;;;;;;;;;5009686;28;20516;-54
2023/03/07 02:11:10;;;;;;;7.40;5.20;;;;;;;;;;5020562;28;20461;-54
2023/03/07 02:13:36;;;;;;;9.40;5.87;;;;;;;;;;5015116;28;20450;-53
2023/03/07 02:16:02;;;;;;;10.40;5.80;;;;;;;;;;5032216;28;20499;-55
2023/03/07 02:18:29;;;;;;;7.50;5.40;;;;;;;;;;5012499;28;20522;-53
2023/03/07 02:21:14;;;;;;;10.53;5.90;;;;;;;;;;5025645;28;20540;-54
2023/03/07 02:23:45;;;;;;;8.50;6.07;;;;;;;;;;5020932;28;20458;-54
2023/03/07 02:26:30;;;;;;;10.93;6.60;;;;;;;;;;5029874;28;20481;-54
2023/03/07 02:28:56;;;;;;;10.10;6.30;;;;;;;;;;5024405;28;20530;-53
2023/03/07 02:31:22;;;;;;;9.90;5.57;;;;;;;;;;5008575;28;21161;-52
2023/03/07 02:33:48;;;;;;;7.60;5.50;;;;;;;;;;5026447;28;20946;-53
2023/03/07 02:36:25;;;;;;;15.90;6.20;;;;;;;;;;5033459;28;20438;-54
2023/03/07 02:38:51;;;;;;;6.53;5.53;;;;;;;;;;5024033;28;20561;-53
2023/03/07 02:41:41;;;;;;;13.43;6.13;;;;;;;;;;5018911;28;20548;-54
2023/03/07 02:44:07;;;;;;;8.70;5.60;;;;;;;;;;5030371;28;20538;-54
2023/03/07 02:46:33;;;;;;;9.53;6.20;;;;;;;;;;5011559;28;20897;-53
2023/03/07 02:48:59;;;;;;;8.73;5.47;;;;;;;;;;5035657;28;20442;-55
2023/03/07 02:51:25;;;;;;;15.77;6.37;;;;;;;;;;5011356;28;20454;-54
2023/03/07 02:53:51;;;;;;;13.87;6.20;;;;;;;;;;5030609;28;20438;-52
2023/03/07 02:56:17;;;;;;;11.33;7.07;;;;;;;;;;5015403;28;21502;-52
2023/03/07 02:58:43;;;;;;;12.77;8.03;;;;;;;;;;5026970;28;21402;-55
2023/03/07 03:01:10;;;;;;;9.53;6.43;;;;;;;;;;5031016;28;20445;-52
2023/03/07 03:03:36;;;;;;;9.57;6.33;;;;;;;;;;5021551;28;20445;-53
2023/03/07 03:06:02;;;;;;;7.97;5.03;;;;;;;;;;5029819;28;20476;-50
2023/03/07 03:08:28;;;;;;;11.37;5.60;;;;;;;;;;5015130;28;20442;-55
2023/03/07 03:10:54;;;;;;;10.20;6.37;;;;;;;;;;5028181;28;20445;-55
2023/03/07 03:13:20;;;;;;;9.03;5.60;;;;;;;;;;5009051;28;20954;-55
2023/03/07 03:15:47;;;;;;;8.30;6.50;;;;;;;;;;5037609;28;20441;-52
2023/03/07 03:18:13;;;;;;;11.90;5.93;;;;;;;;;;4971215;28;20438;-56
2023/03/07 03:20:40;;;;;;;16.17;6.20;;;;;;;;;;5034586;28;20873;-54
2023/03/07 03:23:05;;;;;;;10.63;7.13;;;;;;;;;;5004977;28;20534;-54
2023/03/07 03:25:31;;;;;;;9.23;6.43;;;;;;;;;;5034041;28;20565;-53
2023/03/07 03:27:57;;;;;;;12.50;6.27;;;;;;;;;;4991516;28;20615;-51
2023/03/07 03:30:23;;;;;;;7.77;5.50;;;;;;;;;;5032115;28;20515;-54
2023/03/07 03:32:49;;;;;;;10.80;6.10;;;;;;;;;;5027241;28;20434;-54
2023/03/07 03:35:15;;;;;;;7.27;6.10;;;;;;;;;;5032548;28;21689;-54
2023/03/07 03:37:41;;;;;;;10.63;5.87;;;;;;;;;;5011743;28;21527;-55
2023/03/07 03:40:13;;;;;;;8.37;6.20;;;;;;;;;;5030596;28;20453;-54
2023/03/07 03:42:40;;;;;;;10.43;6.27;;;;;;;;;;5008494;28;20435;-52
2023/03/07 03:45:06;;;;;;;10.20;6.83;;;;;;;;;;5032068;28;20489;-57
2023/03/07 03:47:32;;;;;;;10.27;5.43;;;;;;;;;;5020033;28;20447;-54
2023/03/07 03:49:58;;;;;;;8.23;5.07;;;;;;;;;;5025054;28;20449;-54
2023/03/07 03:52:24;;;;;;;9.07;5.27;;;;;;;;;;4980279;28;20446;-53
2023/03/07 03:54:50;;;;;;;11.17;7.10;;;;;;;;;;5034408;28;20176;-55
2023/03/07 03:57:17;;;;;;;10.80;6.53;;;;;;;;;;5005174;28;20445;-55
2023/03/07 03:59:43;;;;;;;9.13;5.77;;;;;;;;;;5026732;28;20473;-51
2023/03/07 04:02:10;;;;;;;12.80;6.90;;;;;;;;;;4992944;28;20446;-53
2023/03/07 04:04:36;;;;;;;13.17;7.80;;;;;;;;;;5028065;28;20442;-54
2023/03/07 04:07:03;;;;;;;10.60;5.87;;;;;;;;;;4989550;28;20988;-52
2023/03/07 04:09:29;;;;;;;9.20;6.13;;;;;;;;;;5026349;28;20511;-53
2023/03/07 04:11:55;;;;;;;8.97;5.77;;;;;;;;;;4995447;28;20923;-53
2023/03/07 04:14:21;;;;;;;9.37;6.00;;;;;;;;;;5018218;28;20438;-53
2023/03/07 04:16:47;;;;;;;10.87;7.70;;;;;;;;;;5025639;28;21262;-54
2023/03/07 04:19:13;;;;;;;9.90;6.97;;;;;;;;;;5030153;28;20450;-53
2023/03/07 04:21:39;;;;;;;13.37;7.00;;;;;;;;;;5034315;28;20434;-53
2023/03/07 04:24:06;;;;;;;11.63;6.63;;;;;;;;;;5030189;28;20476;-52
2023/03/07 04:26:32;;;;;;;10.40;6.73;;;;;;;;;;4987012;28;20485;-51
2023/03/07 04:28:58;;;;;;;12.27;6.90;;;;;;;;;;5026163;28;20520;-51
2023/03/07 04:31:25;;;;;;;10.70;5.80;;;;;;;;;;5019457;28;20507;-53
2023/03/07 04:33:51;;;;;;;13.57;8.20;;;;;;;;;;5018408;28;20187;-52
2023/03/07 04:36:17;;;;;;;9.57;7.13;;;;;;;;;;5037237;28;20438;-54
2023/03/07 04:38:44;;;;;;;9.57;6.50;;;;;;;;;;5014186;28;20435;-51
2023/03/07 04:41:13;;;;;;;7.70;6.43;;;;;;;;;;5031768;28;20483;-54
2023/03/07 04:43:39;;;;;;;9.97;5.80;;;;;;;;;;5009488;28;20461;-52
2023/03/07 04:46:06;;;;;;;13.90;7.00;;;;;;;;;;5036254;28;20482;-53
2023/03/07 04:48:32;;;;;;;11.87;6.27;;;;;;;;;;5026782;28;20444;-52
2023/03/07 04:50:58;;;;;;;9.47;6.20;;;;;;;;;;5029556;28;21026;-53
2023/03/07 04:53:24;;;;;;;10.00;7.00;;;;;;;;;;5034117;28;20465;-51
2023/03/07 04:55:50;;;;;;;10.53;6.70;;;;;;;;;;5031332;28;20434;-54
2023/03/07 04:58:16;;;;;;;9.47;6.27;;;;;;;;;;4991842;28;20542;-53
2023/03/07 05:00:43;;;;;;;14.63;6.33;;;;;;;;;;5048122;28;20922;-53
2023/03/07 05:03:09;;;;;;;8.50;5.37;;;;;;;;;;5004006;28;20719;-54
2023/03/07 05:05:35;;;;;;;11.40;7.03;;;;;;;;;;5038608;28;20471;-53
2023/03/07 05:08:01;;;;;;;9.87;6.53;;;;;;;;;;4995609;28;20435;-54
2023/03/07 05:10:27;;;;;;;11.97;7.10;;;;;;;;;;5028038;28;20439;-51
2023/03/07 05:12:53;;;;;;;14.27;8.27;;;;;;;;;;5004868;28;20430;-54
2023/03/07 05:15:19;;;;;;;12.67;7.80;;;;;;;;;;5028191;28;20564;-54
2023/03/07 05:17:45;;;;;;;10.77;7.17;;;;;;;;;;5032120;28;20426;-54
2023/03/07 05:20:11;;;;;;;12.40;7.47;;;;;;;;;;5040046;28;20446;-54
2023/03/07 05:22:38;;;;;;;12.60;8.27;;;;;;;;;;5006487;28;20660;-55
2023/03/07 05:25:04;;;;;;;10.80;6.60;;;;;;;;;;5024993;28;20494;-54
2023/03/07 05:27:52;;;;;;;9.47;6.70;;;;;;;;;;5008738;28;21326;-55
2023/03/07 05:30:20;;;;;;;10.03;7.00;;;;;;;;;;5028549;28;20457;-55
2023/03/07 05:32:46;;;;;;;14.43;7.53;;;;;;;;;;5026268;28;20438;-53
2023/03/07 05:35:12;;;;;;;10.13;6.30;;;;;;;;;;5032957;28;20437;-53
2023/03/07 05:37:47;;;;;;;11.70;6.57;;;;;;;;;;5014620;28;21337;-53
2023/03/07 05:40:15;;;;;;;12.80;7.10;;;;;;;;;;5006313;28;21020;-50
2023/03/07 05:42:41;;;;;;;8.30;6.03;;;;;;;;;;5036204;28;20498;-53
2023/03/07 05:45:07;;;;;;;10.20;7.53;;;;;;;;;;5001356;28;20517;-53
2023/03/07 05:47:33;;;;;;;11.40;6.77;;;;;;;;;;5039422;28;20564;-52
2023/03/07 05:49:59;;;;;;;17.83;7.80;;;;;;;;;;4983024;28;20450;-54
2023/03/07 05:52:25;;;;;;;11.93;7.00;;;;;;;;;;5037290;28;20468;-52
2023/03/07 05:54:51;;;;;;;12.90;6.53;;;;;;;;;;4990964;28;20558;-53
2023/03/07 05:57:17;;;;;;;8.20;6.47;;;;;;;;;;5033166;28;20524;-53
2023/03/07 05:59:43;;;;;;;10.87;6.70;;;;;;;;;;4989504;28;20530;-52
2023/03/07 06:02:09;;;;;;;10.07;7.40;;;;;;;;;;5032676;28;20999;-52
2023/03/07 06:04:35;;;;;;;11.83;7.53;;;;;;;;;;5004759;28;20438;-53
2023/03/07 06:07:02;;;;;;;9.53;5.63;;;;;;;;;;5035603;28;20845;-50
2023/03/07 06:09:28;;;;;;;8.60;6.07;;;;;;;;;;5001652;28;20438;-53
2023/03/07 06:11:54;;;;;;;10.07;6.00;;;;;;;;;;4970526;28;20450;-51
2023/03/07 06:14:20;;;;;;;9.67;7.23;;;;;;;;;;5027276;28;20433;-51
2023/03/07 06:16:46;;;;;;;16.90;7.93;;;;;;;;;;4994964;28;20446;-52
2023/03/07 06:19:12;;;;;;;12.13;7.00;;;;;;;;;;5006570;28;20983;-51
2023/03/07 06:21:38;;;;;;;9.60;5.70;;;;;;;;;;5024424;28;20499;-51
2023/03/07 06:24:04;;;;;;;7.90;5.70;;;;;;;;;;5007013;28;20456;-53
2023/03/07 06:26:30;;;;;;;9.87;5.80;;;;;;;;;;5030606;28;20481;-55
2023/03/07 06:28:56;;;;;;;11.67;5.43;;;;;;;;;;5024180;28;20443;-52
2023/03/07 06:31:22;;;;;;;6.17;4.80;;;;;;;;;;5038313;28;20431;-52
2023/03/07 06:33:48;;;;;;;10.30;6.97;;;;;;;;;;4969496;28;20548;-52
2023/03/07 06:36:15;;;;;;;8.83;5.70;;;;;;;;;;5043313;28;20463;-54
2023/03/07 06:38:41;;;;;;;10.30;5.10;;;;;;;;;;5005347;28;20454;-53
2023/03/07 06:41:07;;;;;;;12.93;5.93;;;;;;;;;;5040044;28;20439;-52
2023/03/07 06:43:33;;;;;;;15.53;5.43;;;;;;;;;;5013642;28;20434;-53
2023/03/07 06:45:59;;;;;;;8.30;5.50;;;;;;;;;;5029071;28;20474;-50
2023/03/07 06:48:25;;;;;;;9.60;5.70;;;;;;;;;;5018869;28;20453;-52
2023/03/07 06:50:51;;;;;;;9.87;5.97;;;;;;;;;;5030763;28;20470;-52
2023/03/07 06:53:17;;;;;;;8.50;5.60;;;;;;;;;;5016916;28;20443;-54
2023/03/07 06:55:43;;;;;;;11.00;5.20;;;;;;;;;;5030597;28;20472;-52
2023/03/07 06:58:09;;;;;;;9.33;5.87;;;;;;;;;;5039764;28;20466;-52
2023/03/07 07:00:35;;;;;;;7.47;6.17;;;;;;;;;;5037518;28;20457;-53
2023/03/07 07:03:08;;;;;;;20.70;10.87;;;;;;;;;;5022112;28;20862;-53
2023/03/07 07:05:34;;;;;;;10.80;6.00;;;;;;;;;;5007895;28;20975;-51
2023/03/07 07:08:00;;;;;;;9.17;6.33;;;;;;;;;;5040606;28;20438;-52
2023/03/07 07:10:26;;;;;;;11.63;7.03;;;;;;;;;;5034928;28;20446;-54
2023/03/07 07:12:55;;;;;;;11.23;5.60;;;;;;;;;;5035512;28;20458;-52
2023/03/07 07:15:21;;;;;;;10.30;5.40;;;;;;;;;;5002454;28;20462;-54
2023/03/07 07:17:47;;;;;;;9.60;6.47;;;;;;;;;;5033010;28;20503;-52
2023/03/07 07:20:13;;;;;;;9.63;6.07;;;;;;;;;;5011365;28;20528;-54
2023/03/07 07:22:39;;;;;;;8.70;5.83;;;;;;;;;;5033560;28;20948;-53
2023/03/07 07:25:06;;;;;;;7.90;5.00;;;;;;;;;;4980053;28;20501;-51
2023/03/07 07:27:32;;;;;;;9.73;6.30;;;;;;;;;;5037043;28;20496;-53
2023/03/07 07:29:58;;;;;;;12.90;6.30;;;;;;;;;;5030562;28;20438;-52
2023/03/07 07:32:24;;;;;;;11.93;7.10;;;;;;;;;;5055392;28;20821;-53
2023/03/07 07:34:50;;;;;;;11.13;7.47;;;;;;;;;;4992264;28;21234;-53
2023/03/07 07:37:16;;;;;;;8.40;5.80;;;;;;;;;;5032184;28;20435;-52
2023/03/07 07:39:42;;;;;;;13.33;6.83;;;;;;;;;;5038215;28;22022;-52
2023/03/07 07:42:09;;;;;;;12.73;6.57;;;;;;;;;;5036412;28;20449;-53
2023/03/07 07:44:35;;;;;;;8.20;6.17;;;;;;;;;;5043765;28;20451;-52
2023/03/07 07:47:01;;;;;;;9.33;6.50;;;;;;;;;;5025143;28;20521;-53
2023/03/07 07:49:27;;;;;;;10.97;6.40;;;;;;;;;;5023941;28;20467;-51
2023/03/07 07:51:53;;;;;;;9.17;7.40;;;;;;;;;;5020267;28;21133;-53
2023/03/07 07:54:19;;;;;;;12.60;6.20;;;;;;;;;;5032992;28;20939;-53
2023/03/07 07:56:45;;;;;;;14.20;6.03;;;;;;;;;;5003758;28;20446;-53
2023/03/07 07:59:11;;;;;;;9.03;6.17;;;;;;;;;;5008620;28;20908;-52
2023/03/07 08:01:37;;;;;;;9.10;6.17;;;;;;;;;;5016697;28;23299;-51
2023/03/07 08:04:03;;;;;;;12.00;6.37;;;;;;;;;;4999652;28;20442;-52
2023/03/07 08:06:29;;;;;;;8.80;6.10;;;;;;;;;;5035553;28;20563;-52
2023/03/07 08:09:05;;;;;;;8.33;6.00;;;;;;;;;;5009103;28;20553;-53
2023/03/07 08:11:33;;;;;;;11.23;5.87;;;;;;;;;;5013377;28;20967;-53
2023/03/07 08:13:58;;;;;;;5.67;4.97;;;;;;;;;;5011052;28;20456;-52
2023/03/07 08:16:24;;;;;;;11.30;6.70;;;;;;;;;;5039830;28;20446;-54
2023/03/07 08:18:52;;;;;;;11.93;6.20;;;;;;;;;;5003810;28;20447;-53
2023/03/07 08:21:18;;;;;;;11.90;6.70;;;;;;;;;;5027915;28;20460;-53
2023/03/07 08:23:44;;;;;;;13.27;5.40;;;;;;;;;;5016824;28;20443;-54
2023/03/07 08:26:12;;;;;;;10.47;6.40;;;;;;;;;;5036521;28;20535;-53
2023/03/07 08:28:38;;;;;;;9.90;6.17;;;;;;;;;;5006081;28;20533;-52
2023/03/07 08:31:08;;;;;;;10.10;5.80;;;;;;;;;;5021907;28;20466;-53
2023/03/07 08:33:34;;;;;;;9.90;5.73;;;;;;;;;;5026753;28;20454;-52
2023/03/07 08:36:00;;;;;;;10.93;6.30;;;;;;;;;;5018553;28;20431;-55
2023/03/07 08:38:27;;;;;;;11.63;7.53;;;;;;;;;;5033419;28;20457;-54
2023/03/07 08:40:53;;;;;;;10.30;6.00;;;;;;;;;;4995580;28;20434;-52
2023/03/07 08:43:19;;;;;;;8.53;5.97;;;;;;;;;;5033087;28;20449;-54
2023/03/07 08:45:45;;;;;;;5.83;5.00;;;;;;;;;;5010904;28;20617;-52
2023/03/07 08:48:11;;;;;;;7.03;5.77;;;;;;;;;;5037568;28;20505;-52
2023/03/07 08:50:38;;;;;;;7.97;6.30;;;;;;;;;;5004675;28;20449;-52
2023/03/07 08:53:04;;;;;;;12.67;6.90;;;;;;;;;;5040947;28;20439;-53
2023/03/07 08:55:30;;;;;;;10.07;5.63;;;;;;;;;;5029218;28;20445;-54
2023/03/07 08:57:56;;;;;;;7.67;5.33;;;;;;;;;;5040974;28;20525;-53
2023/03/07 09:00:22;;;;;;;8.10;5.13;;;;;;;;;;5003268;28;20544;-52
2023/03/07 09:02:48;;;;;;;8.73;6.70;;;;;;;;;;5035740;28;20426;-53
2023/03/07 09:05:14;;;;;;;11.93;6.40;;;;;;;;;;5016333;28;20465;-52
2023/03/07 09:07:40;;;;;;;9.37;5.87;;;;;;;;;;5038618;28;20586;-52
2023/03/07 09:10:19;;;;;;;14.23;5.50;;;;;;;;;;5018791;28;21272;-52
2023/03/07 09:12:46;;;;;;;7.03;5.40;;;;;;;;;;5036201;28;20489;-52
2023/03/07 09:15:12;;;;;;;8.70;5.67;;;;;;;;;;5014520;28;20430;-53
2023/03/07 09:17:38;;;;;;;7.53;4.40;;;;;;;;;;5043055;28;20438;-51
2023/03/07 09:20:05;;;;;;;9.47;4.90;;;;;;;;;;5037251;28;20484;-54
2023/03/07 09:22:31;;;;;;;6.33;4.90;;;;;;;;;;5042751;28;20457;-53
2023/03/07 09:24:57;;;;;;;7.17;4.50;;;;;;;;;;5015248;28;20543;-53
2023/03/07 09:27:23;;;;;;;8.40;4.80;;;;;;;;;;5027595;28;21121;-53
2023/03/07 09:29:49;;;;;;;9.37;5.50;;;;;;;;;;5025326;28;20764;-52
2023/03/07 09:32:15;;;;;;;8.13;5.43;;;;;;;;;;5027213;28;20453;-52
2023/03/07 09:34:41;;;;;;;7.63;5.43;;;;;;;;;;5028206;28;20813;-53
2023/03/07 09:37:07;;;;;;;6.47;4.67;;;;;;;;;;4992782;28;20454;-51
2023/03/07 09:39:33;;;;;;;8.20;5.20;;;;;;;;;;5041340;28;20437;-53
2023/03/07 09:42:18;;;;;;;7.33;4.60;;;;;;;;;;4995950;28;21204;-53
2023/03/07 09:45:02;;;;;;;5.57;4.10;;;;;;;;;;5034752;28;20439;-53
2023/03/07 09:47:47;;;;;;;5.97;4.40;;;;;;;;;;5010655;28;20545;-54
2023/03/07 09:50:14;;;;;;;6.97;4.40;;;;;;;;;;5030592;28;20484;-54
2023/03/07 09:52:40;;;;;;;11.33;5.03;;;;;;;;;;5035572;28;20939;-52
2023/03/07 09:55:11;;;;;;;5.83;4.10;;;;;;;;;;5051743;28;20573;-51
2023/03/07 09:57:57;;;;;;;7.50;4.47;;;;;;;;;;5004750;28;20457;-52
2023/03/07 10:00:27;;;;;;;7.93;4.70;;;;;;;;;;5040095;28;20422;-53
2023/03/07 10:03:11;;;;;;;6.20;4.10;;;;;;;;;;4997173;28;20438;-54
2023/03/07 10:05:38;;;;;;;10.03;5.30;;;;;;;;;;5029850;28;20518;-51
2023/03/07 10:08:04;;;;;;;6.63;4.43;;;;;;;;;;5016555;28;20430;-51
2023/03/07 10:10:30;;;;;;;8.43;4.60;;;;;;;;;;5029278;28;20451;-51
2023/03/07 10:13:05;;;;;;;8.47;4.90;;;;;;;;;;4997811;28;20435;-52
2023/03/07 10:15:41;;;;;;;8.17;4.50;;;;;;;;;;5035416;28;20475;-53
2023/03/07 10:18:26;;;;;;;8.30;4.47;;;;;;;;;;5005646;28;20441;-52
2023/03/07 10:20:52;;;;;;;5.70;4.30;;;;;;;;;;5037623;28;20434;-51
2023/03/07 10:23:32;;;;;;;16.87;4.63;;;;;;;;;;5030939;28;20458;-52
2023/03/07 10:26:11;;;;;;;11.67;5.73;;;;;;;;;;5037787;28;20477;-53
2023/03/07 10:28:38;;;;;;;8.20;4.03;;;;;;;;;;5008304;28;20474;-52
2023/03/07 10:31:10;;;;;;;6.30;3.83;;;;;;;;;;5034926;28;20443;-52
2023/03/07 10:33:36;;;;;;;7.00;4.00;;;;;;;;;;5003680;28;20454;-52
2023/03/07 10:36:06;;;;;;;6.80;4.70;;;;;;;;;;5039720;28;20430;-53
2023/03/07 10:38:44;;;;;;;9.40;5.03;;;;;;;;;;5017966;28;20449;-51
2023/03/07 10:41:15;;;;;;;8.93;4.90;;;;;;;;;;5037746;28;20481;-54
2023/03/07 10:43:41;;;;;;;7.00;4.23;;;;;;;;;;4955835;28;20480;-51
2023/03/07 10:46:07;;;;;;;8.03;4.73;;;;;;;;;;5017513;28;20567;-50
2023/03/07 10:48:33;;;;;;;8.13;4.70;;;;;;;;;;5026486;28;20429;-53
2023/03/07 10:51:06;;;;;;;7.10;5.27;;;;;;;;;;5007613;28;20500;-51
2023/03/07 10:53:33;;;;;;;7.60;4.50;;;;;;;;;;5037445;28;20844;-53
2023/03/07 10:56:09;;;;;;;6.40;5.10;;;;;;;;;;5008462;28;20434;-52
2023/03/07 10:58:35;;;;;;;8.40;5.30;;;;;;;;;;5037842;28;20442;-52
2023/03/07 11:01:13;;;;;;;6.73;3.80;;;;;;;;;;5012217;28;20529;-52
2023/03/07 11:03:39;;;;;;;6.60;4.80;;;;;;;;;;5040509;28;20435;-53
2023/03/07 11:06:05;;;;;;;4.90;4.10;;;;;;;;;;5005310;28;20563;-53
2023/03/07 11:08:32;;;;;;;7.70;4.40;;;;;;;;;;5031709;28;20827;-52
2023/03/07 11:10:58;;;;;;;4.60;3.73;;;;;;;;;;5014371;28;20447;-52
2023/03/07 11:13:30;;;;;;;11.33;5.23;;;;;;;;;;5022427;28;20519;-52
2023/03/07 11:16:09;;;;;;;6.93;4.60;;;;;;;;;;4999636;28;20446;-53
2023/03/07 11:18:39;;;;;;;6.30;4.70;;;;;;;;;;5041562;28;20446;-52
2023/03/07 11:21:05;;;;;;;7.10;4.43;;;;;;;;;;5036106;28;20498;-53
2023/03/07 11:23:31;;;;;;;7.47;5.20;;;;;;;;;;5037648;28;20939;-54
2023/03/07 11:26:17;;;;;;;6.90;4.47;;;;;;;;;;5009666;28;20971;-53
2023/03/07 11:28:43;;;;;;;8.57;4.93;;;;;;;;;;5035602;28;20854;-52
2023/03/07 11:31:09;;;;;;;8.67;5.83;;;;;;;;;;5038366;28;21074;-53
2023/03/07 11:33:53;;;;;;;6.83;4.07;;;;;;;;;;5040312;28;20497;-53
2023/03/07 11:36:22;;;;;;;10.97;5.77;;;;;;;;;;4990580;28;20206;-52
2023/03/07 11:38:51;;;;;;;8.40;5.70;;;;;;;;;;5031686;28;20865;-52
2023/03/07 11:41:27;;;;;;;8.53;5.50;;;;;;;;;;5014114;28;20449;-57
2023/03/07 11:44:12;;;;;;;7.93;5.40;;;;;;;;;;5049095;28;20537;-54
2023/03/07 11:46:40;;;;;;;8.87;5.10;;;;;;;;;;4996242;28;20470;-53
2023/03/07 11:49:12;;;;;;;6.93;5.20;;;;;;;;;;5010243;28;20478;-52
2023/03/07 11:51:58;;;;;;;9.30;4.97;;;;;;;;;;5037668;28;20451;-53
2023/03/07 11:54:26;;;;;;;8.37;4.43;;;;;;;;;;5045307;28;20438;-53
2023/03/07 11:56:53;;;;;;;6.47;5.03;;;;;;;;;;5035344;28;21005;-53
2023/03/07 11:59:27;;;;;;;5.20;4.27;;;;;;;;;;5008937;28;20984;-53
2023/03/07 12:01:54;;;;;;;9.13;4.50;;;;;;;;;;5034308;28;20442;-53
2023/03/07 12:04:39;;;;;;;6.40;4.80;;;;;;;;;;5036140;28;20452;-53
2023/03/07 12:07:20;;;;;;;6.70;4.07;;;;;;;;;;5040751;28;20489;-55
2023/03/07 12:09:58;;;;;;;8.20;4.83;;;;;;;;;;5009346;28;20528;-53
2023/03/07 12:12:30;;;;;;;8.10;4.37;;;;;;;;;;5029881;28;20465;-57
2023/03/07 12:15:01;;;;;;;4.87;3.93;;;;;;;;;;5015938;28;20488;-52
2023/03/07 12:17:27;;;;;;;8.97;4.97;;;;;;;;;;5040393;28;21042;-53
2023/03/07 12:19:57;;;;;;;5.03;3.20;;;;;;;;;;4998307;28;20453;-52
2023/03/07 12:22:25;;;;;;;6.30;4.67;;;;;;;;;;5036100;28;20455;-52
2023/03/07 12:25:10;;;;;;;9.03;4.40;;;;;;;;;;5044030;28;20445;-52
2023/03/07 12:27:43;;;;;;;4.80;4.00;;;;;;;;;;5035250;28;20553;-54
2023/03/07 12:30:19;;;;;;;7.23;3.60;;;;;;;;;;5006874;28;20501;-53
2023/03/07 12:32:46;;;;;;;7.30;4.63;;;;;;;;;;5035219;28;20431;-52
2023/03/07 12:35:22;;;;;;;9.87;5.50;;;;;;;;;;5009928;28;20473;-52
2023/03/07 12:38:04;;;;;;;12.33;4.83;;;;;;;;;;5047003;28;20426;-51
2023/03/07 12:40:40;;;;;;;7.77;4.10;;;;;;;;;;4997198;28;20894;-52
2023/03/07 12:43:12;;;;;;;5.33;3.90;;;;;;;;;;5054643;28;20429;-52
2023/03/07 12:45:41;;;;;;;6.13;4.20;;;;;;;;;;5004623;28;20544;-52
2023/03/07 12:48:08;;;;;;;6.10;4.00;;;;;;;;;;5038503;28;20848;-52
2023/03/07 12:50:34;;;;;;;7.40;5.00;;;;;;;;;;4992141;28;20541;-52
2023/03/07 12:53:03;;;;;;;6.03;4.40;;;;;;;;;;5046214;28;20529;-53
2023/03/07 12:55:31;;;;;;;6.03;4.20;;;;;;;;;;5037012;28;20894;-52
2023/03/07 12:58:14;;;;;;;6.43;4.33;;;;;;;;;;5046177;28;20435;-53
2023/03/07 13:00:42;;;;;;;7.20;4.27;;;;;;;;;;5016148;28;20438;-54
2023/03/07 13:03:08;;;;;;;7.53;4.17;;;;;;;;;;5053443;28;21361;-53
2023/03/07 13:05:35;;;;;;;11.70;5.40;;;;;;;;;;5009585;28;20478;-52
2023/03/07 13:08:01;;;;;;;6.07;3.90;;;;;;;;;;5041549;28;20448;-52
2023/03/07 13:10:27;;;;;;;8.03;4.53;;;;;;;;;;5004689;28;21047;-55
2023/03/07 13:12:53;;;;;;;9.20;4.73;;;;;;;;;;5040079;28;20524;-51
2023/03/07 13:15:19;;;;;;;5.40;3.83;;;;;;;;;;5016556;28;21163;-52
2023/03/07 13:17:45;;;;;;;6.10;4.30;;;;;;;;;;5035803;28;20446;-50
2023/03/07 13:20:25;;;;;;;5.27;3.87;;;;;;;;;;5013126;28;21003;-54
2023/03/07 13:22:54;;;;;;;11.63;4.13;;;;;;;;;;4981469;28;20956;-58
2023/03/07 13:25:24;;;;;;;7.73;4.23;;;;;;;;;;4982810;28;20557;-51
2023/03/07 13:27:51;;;;;;;4.57;3.83;;;;;;;;;;4964655;28;22561;-52
2023/03/07 13:30:18;;;;;;;6.03;3.67;;;;;;;;;;4965394;28;20448;-53
2023/03/07 13:32:50;;;;;;;6.80;4.10;;;;;;;;;;5003501;28;20559;-51
2023/03/07 13:35:28;;;;;;;4.90;3.00;;;;;;;;;;5021140;28;20438;-51
2023/03/07 13:37:55;;;;;;;5.10;3.57;;;;;;;;;;5038071;28;20955;-52
2023/03/07 13:40:36;;;;;;;11.83;4.20;;;;;;;;;;5010062;28;20522;-52
2023/03/07 13:43:03;;;;;;;13.90;4.10;;;;;;;;;;5036939;28;20474;-51
2023/03/07 13:45:38;;;;;;;8.53;3.43;;;;;;;;;;5002741;28;20467;-53
2023/03/07 13:48:24;;;;;;;5.53;3.30;;;;;;;;;;5013144;28;20442;-53
2023/03/07 13:50:50;;;;;;;8.00;5.03;;;;;;;;;;5038338;28;20462;-52
2023/03/07 13:53:17;;;;;;;7.97;5.00;;;;;;;;;;4996260;28;20513;-52
2023/03/07 13:55:54;;;;;;;4.13;3.50;;;;;;;;;;5038374;28;20203;-52
2023/03/07 13:58:24;;;;;;;5.57;2.93;;;;;;;;;;5030278;28;20466;-52
2023/03/07 14:00:52;;;;;;;4.70;3.70;;;;;;;;;;5019538;28;20447;-51
2023/03/07 14:03:31;;;;;;;6.03;4.07;;;;;;;;;;5035834;28;20485;-54
2023/03/07 14:06:00;;;;;;;4.10;3.30;;;;;;;;;;5044203;28;20500;-51
2023/03/07 14:08:27;;;;;;;6.10;4.10;;;;;;;;;;5041827;28;20458;-54
2023/03/07 14:10:53;;;;;;;5.73;4.10;;;;;;;;;;5024663;28;20438;-52
2023/03/07 14:13:22;;;;;;;5.13;3.70;;;;;;;;;;5030829;28;20465;-53
2023/03/07 14:15:51;;;;;;;7.87;5.50;;;;;;;;;;5037346;28;20439;-52
2023/03/07 14:18:30;;;;;;;5.53;4.23;;;;;;;;;;5034327;28;20476;-52
2023/03/07 14:20:59;;;;;;;5.40;3.47;;;;;;;;;;5023361;28;20442;-52
2023/03/07 14:23:57;;;;;;;5.30;3.57;;;;;;;;;;5055988;28;20454;-52
2023/03/07 14:26:32;;;;;;;4.23;3.17;;;;;;;;;;5004378;28;20466;-52
2023/03/07 14:29:01;;;;;;;5.30;3.17;;;;;;;;;;5033691;28;20950;-53
2023/03/07 14:31:28;;;;;;;4.80;3.63;;;;;;;;;;5047497;28;20442;-52
2023/03/07 14:33:54;;;;;;;5.63;3.57;;;;;;;;;;5013561;28;20454;-51
2023/03/07 14:36:21;;;;;;;5.80;3.60;;;;;;;;;;5047201;28;20440;-52
2023/03/07 14:38:47;;;;;;;5.03;3.80;;;;;;;;;;5007775;28;20470;-52
2023/03/07 14:41:20;;;;;;;4.10;3.70;;;;;;;;;;5035173;28;20450;-50
2023/03/07 14:43:45;;;;;;;4.70;3.73;;;;;;;;;;5014793;28;20454;-53
2023/03/07 14:46:28;;;;;;;7.10;3.77;;;;;;;;;;5041996;28;20471;-52